• pl
  • eng

Awiacja
TAF FT 01:00 01.01.1970

TAF EPBY 241730Z 2418/2518 23005KT CAVOK
BECMG 2512/2515 26015KT
TEMPO 2512/2517 27016G26KT=

TAF EPGD 241730Z 2418/2518 VRB02KT CAVOK
BECMG 2502/2505 25015KT
TEMPO 2512/2517 25016G27KT=

TAF EPKK 241730Z 2418/2518 VRB02KT 9999 BKN040
BECMG 2420/2422 3000 BR
BECMG 2506/2508 27010KT CAVOK=

TAF EPKT 241730Z 2418/2518 VRB02KT 9999 SCT040
BECMG 2421/2423 3000 BR
PROB30 2502/2505 0600 FG
BECMG 2506/2508 CAVOK
BECMG 2510/2512 28010KT
TEMPO 2515/2518 SHRA BKN030CB=

TAF EPLL 241730Z 2418/2518 VRB03KT 9999 SCT035
BECMG 2508/2510 27010KT
PROB40 TEMPO 2510/2512 BKN030TCU=

TAF EPMO 241730Z 2418/2518 27006KT 9999 SCT035
PROB40 2510/2517 SCT030TCU=

TAF EPPO 241730Z 2418/2518 28006KT CAVOK=

TAF EPRZ 241730Z 2418/2518 29010KT 9999 BKN030
TEMPO 2418/2421 SHRA BKN020CB=

TAF EPSC 241730Z 2418/2518 24005KT CAVOK=

TAF EPWA 241730Z 2418/2518 27008KT 9999 SCT040
PROB40 2510/2517 SCT033TCU=

TAF EPWR 241730Z 2418/2518 28006KT CAVOK
PROB40 TEMPO 2510/2518 BKN030TCU=
Awiacja.imgw.pl jest pogodowym serwisem informacyjnym
Instytutu Meteorologii i Gospodarki Wodnej Państwowego Instytutu Badawczego.
Copyright IMGW PIB 2009-2011© Wszelkie prawa zastrzeżone.